createdAt,value
2018-07-13T00:00:23.415Z,99.90
2018-07-13T00:02:52.140Z,99.90
2018-07-13T00:05:20.865Z,99.90
2018-07-13T00:07:49.568Z,99.90
2018-07-13T00:10:18.302Z,99.90
2018-07-13T00:12:46.984Z,99.90
2018-07-13T00:15:15.700Z,99.90
2018-07-13T00:17:44.422Z,99.40
2018-07-13T00:20:13.198Z,99.00
2018-07-13T00:22:41.891Z,98.70
2018-07-13T00:25:10.624Z,98.30
2018-07-13T00:27:39.325Z,99.90
2018-07-13T00:30:08.024Z,99.10
2018-07-13T00:32:36.769Z,99.10
2018-07-13T00:35:05.524Z,99.90
2018-07-13T00:37:34.245Z,98.40
2018-07-13T00:40:03.048Z,99.30
2018-07-13T00:42:31.753Z,99.40
2018-07-13T00:45:00.459Z,97.80
2018-07-13T00:47:29.197Z,97.00
2018-07-13T00:49:57.853Z,96.60
2018-07-13T00:52:26.584Z,96.20
2018-07-13T00:54:55.339Z,96.10
2018-07-13T00:57:24.097Z,95.90
2018-07-13T00:59:52.802Z,97.50
2018-07-13T01:02:21.547Z,97.10
2018-07-13T01:04:50.210Z,97.40
2018-07-13T01:07:18.917Z,98.00
2018-07-13T01:09:47.645Z,99.30
2018-07-13T01:12:16.360Z,98.60
2018-07-13T01:14:45.077Z,97.90
2018-07-13T01:17:13.790Z,98.00
2018-07-13T01:19:42.652Z,96.40
2018-07-13T01:22:11.392Z,95.00
2018-07-13T01:24:40.159Z,94.50
2018-07-13T01:27:08.868Z,96.80
2018-07-13T01:29:37.583Z,97.10
2018-07-13T01:32:06.441Z,96.80
2018-07-13T01:34:35.281Z,95.90
2018-07-13T01:37:04.061Z,95.90
2018-07-13T01:39:32.840Z,94.40
2018-07-13T01:42:01.580Z,93.30
2018-07-13T01:44:30.364Z,94.50
2018-07-13T01:46:59.162Z,93.40
2018-07-13T01:49:27.912Z,93.90
2018-07-13T01:51:56.597Z,92.60
2018-07-13T01:54:25.320Z,94.00
2018-07-13T01:56:54.069Z,91.80
2018-07-13T01:59:22.739Z,93.80
2018-07-13T02:01:51.889Z,90.30
2018-07-13T02:04:20.593Z,92.40
2018-07-13T02:09:17.684Z,91.10
2018-07-13T02:11:46.396Z,90.40
2018-07-13T02:14:15.147Z,91.00
2018-07-13T02:16:43.976Z,91.30
2018-07-13T02:19:12.664Z,91.20
2018-07-13T02:21:41.453Z,89.90
2018-07-13T02:24:10.845Z,90.00
2018-07-13T02:26:39.627Z,90.20
2018-07-13T02:29:08.358Z,92.20
2018-07-13T03:53:35.894Z,91.10
2018-07-13T03:56:04.891Z,97.40
2018-07-13T03:58:34.059Z,98.10
2018-07-13T04:01:02.817Z,95.70
2018-07-13T04:03:31.659Z,95.00
2018-07-13T04:06:00.537Z,93.90
2018-07-13T04:08:29.256Z,90.90
2018-07-13T04:10:57.977Z,90.10
2018-07-13T04:13:26.716Z,89.00
2018-07-13T04:15:55.473Z,87.50
2018-07-13T04:18:24.975Z,90.00
2018-07-13T04:20:54.382Z,88.50
2018-07-13T04:23:24.091Z,87.90
2018-07-13T04:25:53.116Z,89.20
2018-07-13T04:28:22.284Z,88.50
2018-07-13T04:30:51.208Z,88.00
2018-07-13T04:33:19.916Z,86.70
2018-07-13T04:35:48.651Z,86.00
2018-07-13T04:38:17.464Z,85.70
2018-07-13T04:40:46.212Z,85.50
2018-07-13T04:43:14.865Z,85.80
2018-07-13T04:45:43.703Z,86.20
2018-07-13T04:48:12.470Z,85.20
2018-07-13T04:50:41.286Z,84.20
2018-07-13T04:53:10.410Z,86.40
2018-07-13T04:55:39.216Z,84.50
2018-07-13T04:58:08.048Z,85.90
2018-07-13T05:00:36.941Z,85.00
2018-07-13T05:03:05.792Z,85.10
2018-07-13T05:05:34.559Z,86.30
2018-07-13T05:08:03.678Z,85.50
2018-07-13T05:10:32.465Z,82.70
2018-07-13T05:13:01.184Z,84.80
2018-07-13T05:15:29.970Z,83.60
2018-07-13T05:17:58.647Z,82.70
2018-07-13T05:20:27.452Z,82.50
2018-07-13T05:22:56.277Z,82.70
2018-07-13T05:25:25.060Z,81.70
2018-07-13T05:27:54.251Z,82.30
2018-07-13T05:30:23.012Z,84.10
2018-07-13T05:32:51.844Z,82.90
2018-07-13T05:35:20.712Z,83.80
2018-07-13T05:37:49.491Z,84.10
2018-07-13T05:40:18.249Z,84.20
2018-07-13T05:42:47.075Z,80.80
2018-07-13T05:45:15.963Z,83.90
2018-07-13T05:47:44.779Z,81.00
2018-07-13T05:50:13.633Z,77.00
2018-07-13T05:52:42.466Z,79.10
2018-07-13T05:55:11.262Z,77.70
2018-07-13T05:57:40.115Z,78.80
2018-07-13T06:00:09.145Z,75.30
2018-07-13T06:02:37.930Z,72.40
2018-07-13T06:05:06.700Z,70.10
2018-07-13T06:07:35.568Z,69.80
2018-07-13T06:10:04.481Z,70.40
2018-07-13T06:12:33.240Z,69.50
2018-07-13T06:15:02.019Z,71.00
2018-07-13T06:17:32.103Z,71.20
2018-07-13T06:20:00.941Z,74.00
2018-07-13T06:22:29.955Z,74.50
2018-07-13T06:24:58.656Z,70.70
2018-07-13T06:27:27.364Z,71.90
2018-07-13T06:29:56.084Z,70.80
2018-07-13T06:32:24.818Z,70.80
2018-07-13T06:34:53.526Z,71.40
2018-07-13T06:37:22.289Z,66.70
2018-07-13T06:39:51.040Z,67.10
2018-07-13T06:42:19.916Z,66.20
2018-07-13T06:44:48.959Z,68.30
2018-07-13T06:47:17.620Z,69.90
2018-07-13T06:49:46.345Z,66.60
2018-07-13T06:52:15.108Z,65.60
2018-07-13T06:54:43.797Z,65.40
2018-07-13T06:57:21.361Z,67.80
2018-07-13T06:59:50.147Z,70.40
2018-07-13T07:02:29.913Z,68.50
2018-07-13T07:06:07.992Z,68.40
2018-07-13T07:08:38.249Z,68.80
2018-07-13T07:11:07.109Z,60.90
2018-07-13T07:13:39.750Z,58.70
2018-07-13T07:16:08.537Z,54.30
2018-07-13T07:18:37.395Z,54.00
2018-07-13T07:21:06.330Z,49.40
2018-07-13T07:23:35.407Z,45.60
2018-07-13T07:26:05.061Z,42.40
2018-07-13T07:28:33.993Z,36.40
2018-07-13T07:31:03.397Z,33.20
2018-07-13T07:33:32.134Z,32.80
2018-07-13T07:36:00.818Z,28.30
2018-07-13T07:38:29.567Z,30.10
2018-07-13T07:40:58.303Z,24.80
2018-07-13T07:43:27.041Z,20.80
2018-07-13T07:45:55.741Z,16.10
2018-07-13T07:48:24.482Z,15.30
2018-07-13T07:50:53.190Z,15.50
2018-07-13T07:53:21.902Z,15.40
2018-07-13T07:55:50.587Z,14.30
2018-07-13T07:58:19.292Z,15.00
2018-07-13T08:00:48.015Z,12.80
2018-07-13T08:03:16.691Z,11.60
2018-07-13T08:05:45.368Z,10.10
2018-07-13T08:08:14.045Z,9.50
2018-07-13T08:10:42.760Z,10.50
2018-07-13T08:13:11.441Z,10.30
2018-07-13T08:15:40.101Z,12.90
2018-07-13T08:18:08.817Z,12.70
2018-07-13T08:20:39.626Z,16.50
2018-07-13T08:23:09.226Z,14.60
2018-07-13T08:25:38.742Z,14.60
2018-07-13T08:28:09.052Z,17.50
2018-07-13T08:30:43.776Z,18.30
2018-07-13T08:33:12.439Z,21.90
2018-07-13T08:35:41.112Z,18.90
2018-07-13T08:38:09.880Z,17.90
2018-07-13T08:40:38.658Z,23.70
2018-07-13T08:43:07.461Z,20.00
2018-07-13T08:45:36.260Z,15.50
2018-07-13T08:48:05.033Z,19.90
2018-07-13T08:50:33.985Z,20.20
2018-07-13T08:53:03.592Z,18.20
2018-07-13T08:55:32.363Z,19.50
2018-07-13T08:58:01.149Z,16.80
2018-07-13T09:00:29.941Z,14.50
2018-07-13T09:02:58.713Z,13.50
2018-07-13T09:05:27.474Z,13.90
2018-07-13T09:07:56.355Z,13.40
2018-07-13T09:10:25.078Z,12.50
2018-07-13T09:12:53.880Z,11.60
2018-07-13T09:15:22.669Z,10.20
2018-07-13T09:17:51.433Z,9.70
2018-07-13T09:20:20.194Z,11.30
2018-07-13T09:22:48.954Z,10.60
2018-07-13T09:25:17.658Z,10.00
2018-07-13T09:27:46.348Z,8.50
2018-07-13T09:30:15.125Z,6.40
2018-07-13T09:32:43.810Z,9.40
2018-07-13T09:35:12.537Z,9.50
2018-07-13T09:37:41.332Z,9.10
2018-07-13T09:40:10.045Z,8.40
2018-07-13T09:42:38.855Z,6.40
2018-07-13T09:45:07.611Z,9.30
2018-07-13T09:47:36.867Z,7.60
2018-07-13T09:50:05.728Z,8.10
2018-07-13T09:52:34.542Z,7.40
2018-07-13T09:55:03.357Z,7.00
2018-07-13T09:57:32.203Z,9.30
2018-07-13T10:00:00.930Z,7.60
2018-07-13T10:02:29.743Z,9.20
2018-07-13T10:04:58.504Z,11.00
2018-07-13T10:07:27.569Z,10.00
2018-07-13T10:09:56.223Z,11.20
2018-07-13T10:12:24.944Z,11.00
2018-07-13T10:14:53.827Z,12.50
2018-07-13T10:17:22.589Z,9.40
2018-07-13T10:19:51.333Z,7.90
2018-07-13T10:22:23.275Z,6.50
2018-07-13T10:24:52.778Z,6.20
2018-07-13T10:27:21.472Z,5.50
2018-07-13T10:29:54.150Z,6.90
2018-07-13T10:32:22.943Z,7.30
2018-07-13T10:34:52.570Z,8.20
2018-07-13T10:37:21.384Z,7.30
2018-07-13T10:39:50.072Z,9.20
2018-07-13T10:42:18.803Z,7.50
2018-07-13T10:44:47.553Z,8.20
2018-07-13T10:47:16.267Z,4.60
2018-07-13T10:49:44.934Z,6.10
2018-07-13T10:52:13.677Z,6.20
2018-07-13T10:54:42.354Z,6.40
2018-07-13T10:57:11.025Z,4.40
2018-07-13T10:59:39.765Z,5.10
2018-07-13T11:02:08.436Z,4.90
2018-07-13T11:04:37.121Z,6.60
2018-07-13T11:07:05.816Z,6.70
2018-07-13T11:09:34.463Z,6.10
2018-07-13T11:12:03.165Z,6.60
2018-07-13T11:14:31.878Z,7.20
2018-07-13T11:17:00.584Z,7.90
2018-07-13T11:19:29.284Z,6.80
2018-07-13T11:21:58.029Z,6.10
2018-07-13T11:24:26.690Z,5.90
2018-07-13T11:26:55.377Z,5.40
2018-07-13T11:29:24.102Z,6.70
2018-07-13T11:31:52.808Z,5.90
2018-07-13T11:34:21.529Z,6.30
2018-07-13T11:36:50.307Z,7.80
2018-07-13T11:39:18.942Z,6.70
2018-07-13T11:41:47.612Z,5.80
2018-07-13T11:44:16.363Z,5.60
2018-07-13T11:46:45.057Z,5.60
2018-07-13T11:49:13.716Z,5.30
2018-07-13T11:51:42.413Z,6.90
2018-07-13T11:54:11.077Z,6.10
2018-07-13T11:56:39.791Z,5.80
2018-07-13T11:59:08.507Z,8.90
2018-07-13T12:01:37.221Z,10.10
2018-07-13T12:04:05.939Z,7.80
2018-07-13T12:06:34.697Z,8.60
2018-07-13T12:09:03.544Z,8.70
2018-07-13T12:11:32.224Z,9.00
2018-07-13T12:14:00.918Z,8.80
2018-07-13T12:16:29.662Z,8.10
2018-07-13T12:18:58.338Z,7.60
2018-07-13T12:21:27.056Z,7.50
2018-07-13T12:23:55.734Z,7.20
2018-07-13T12:26:24.422Z,7.90
2018-07-13T12:28:53.136Z,8.00
2018-07-13T12:31:21.864Z,7.60
2018-07-13T12:33:50.582Z,7.70
2018-07-13T12:36:19.296Z,8.00
2018-07-13T12:38:48.009Z,8.30
2018-07-13T12:41:16.730Z,6.40
2018-07-13T12:43:45.612Z,6.90
2018-07-13T12:46:14.620Z,6.80
2018-07-13T12:48:43.448Z,6.00
2018-07-13T12:51:12.364Z,6.60
2018-07-13T12:53:41.085Z,6.10
2018-07-13T12:56:09.752Z,5.50
2018-07-13T12:58:38.772Z,5.00
2018-07-13T13:01:07.462Z,7.40
2018-07-13T13:03:36.150Z,4.70
2018-07-13T13:06:04.881Z,4.50
2018-07-13T13:08:33.594Z,6.80
2018-07-13T13:11:02.316Z,8.10
2018-07-13T13:13:31.139Z,7.20
2018-07-13T13:15:59.849Z,9.00
2018-07-13T13:18:28.544Z,7.00
2018-07-13T13:20:57.228Z,6.40
2018-07-13T13:23:25.916Z,6.90
2018-07-13T13:25:54.599Z,7.30
2018-07-13T13:28:23.308Z,8.70
2018-07-13T13:30:51.967Z,7.90
2018-07-13T13:33:20.661Z,8.70
2018-07-13T13:35:49.390Z,7.60
2018-07-13T13:38:18.145Z,7.60
2018-07-13T13:40:46.934Z,8.30
2018-07-13T13:43:15.673Z,7.20
2018-07-13T13:45:44.438Z,8.60
2018-07-13T13:48:13.236Z,6.50
2018-07-13T13:50:41.933Z,6.20
2018-07-13T13:53:10.644Z,8.10
2018-07-13T13:55:39.378Z,6.70
2018-07-13T13:58:08.132Z,5.30
2018-07-13T14:00:37.315Z,5.70
2018-07-13T14:03:06.121Z,5.50
2018-07-13T14:05:34.982Z,6.90
2018-07-13T14:08:03.672Z,6.60
2018-07-13T14:10:32.377Z,4.20
2018-07-13T14:13:01.100Z,3.50
2018-07-13T14:15:29.812Z,4.10
2018-07-13T14:17:58.500Z,6.10
2018-07-13T14:20:27.265Z,6.10
2018-07-13T14:22:55.981Z,6.30
2018-07-13T14:25:24.649Z,7.10
2018-07-13T14:27:53.361Z,6.80
2018-07-13T14:30:22.045Z,6.50
2018-07-13T14:32:50.761Z,6.30
2018-07-13T14:35:19.545Z,7.40
2018-07-13T14:37:48.598Z,7.00
2018-07-13T14:40:17.387Z,7.00
2018-07-13T14:42:46.153Z,7.40
2018-07-13T14:45:14.949Z,8.90
2018-07-13T14:48:46.901Z,8.10
2018-07-13T14:51:15.629Z,7.20
2018-07-13T14:53:44.301Z,8.40
2018-07-13T14:56:13.069Z,9.10
2018-07-13T14:58:41.736Z,9.40
2018-07-13T15:01:10.461Z,7.10
2018-07-13T15:03:39.265Z,7.20
2018-07-13T15:06:08.085Z,8.60
2018-07-13T15:08:36.725Z,8.40
2018-07-13T15:11:05.668Z,9.40
2018-07-13T15:13:34.404Z,8.50
2018-07-13T15:16:03.149Z,8.90
2018-07-13T15:18:31.881Z,8.70
2018-07-13T15:21:00.572Z,8.80
2018-07-13T15:23:29.432Z,8.00
2018-07-13T15:25:58.357Z,8.30
2018-07-13T15:28:27.029Z,6.70
2018-07-13T15:30:55.729Z,8.70
2018-07-13T15:33:24.498Z,7.40
2018-07-13T15:35:53.205Z,7.40
2018-07-13T15:38:21.898Z,6.50
2018-07-13T15:40:50.704Z,6.70
2018-07-13T15:43:19.406Z,6.30
2018-07-13T15:45:48.072Z,8.60
2018-07-13T15:48:16.824Z,7.70
2018-07-13T15:50:47.396Z,6.80
2018-07-13T15:53:16.132Z,6.30
2018-07-13T15:55:50.274Z,5.10
2018-07-13T15:58:19.909Z,6.60
2018-07-13T16:00:49.555Z,7.30
2018-07-13T16:03:18.343Z,6.20
2018-07-13T16:05:48.159Z,6.00
2018-07-13T16:08:17.092Z,4.80
2018-07-13T16:10:45.793Z,7.50
2018-07-13T16:13:15.946Z,6.40
2018-07-13T16:15:44.633Z,6.20
2018-07-13T16:18:13.415Z,5.90
2018-07-13T16:20:42.155Z,5.30
2018-07-13T16:23:10.807Z,7.10
2018-07-13T16:25:39.503Z,6.20
2018-07-13T16:28:08.233Z,6.00
2018-07-13T16:30:36.960Z,5.90
2018-07-13T16:33:06.081Z,6.50
2018-07-13T16:35:34.859Z,6.30
2018-07-13T16:38:03.533Z,5.50
2018-07-13T16:40:32.219Z,6.00
2018-07-13T16:43:00.949Z,5.80
2018-07-13T16:45:29.654Z,6.60
2018-07-13T16:47:58.369Z,6.50
2018-07-13T16:50:27.170Z,5.70
2018-07-13T16:52:56.173Z,6.80
2018-07-13T16:55:24.866Z,6.90
2018-07-13T16:57:53.673Z,6.80
2018-07-13T17:00:22.410Z,7.20
2018-07-13T17:02:51.189Z,7.00
2018-07-13T17:05:20.020Z,6.70
2018-07-13T17:07:48.691Z,8.20
2018-07-13T17:10:17.416Z,8.60
2018-07-13T17:12:46.196Z,8.70
2018-07-13T17:15:14.957Z,8.80
2018-07-13T17:17:45.361Z,9.10
2018-07-13T17:20:14.172Z,7.70
2018-07-13T17:22:42.810Z,8.40
2018-07-13T17:25:11.696Z,7.60
2018-07-13T17:27:40.597Z,7.60
2018-07-13T17:30:10.054Z,7.70
2018-07-13T17:32:39.063Z,8.10
2018-07-13T17:35:07.879Z,7.50
2018-07-13T17:37:37.333Z,8.00
2018-07-13T17:40:06.264Z,8.80
2018-07-13T17:42:34.991Z,8.00
2018-07-13T17:45:03.911Z,7.80
2018-07-13T17:47:32.648Z,8.00
2018-07-13T17:50:01.465Z,7.80
2018-07-13T17:52:31.021Z,8.60
2018-07-13T17:54:59.750Z,8.50
2018-07-13T17:57:28.460Z,8.40
2018-07-13T17:59:57.160Z,8.70
2018-07-13T18:02:26.188Z,9.40
2018-07-13T18:04:55.756Z,10.70
2018-07-13T18:07:24.574Z,11.40
2018-07-13T18:09:53.292Z,11.00
2018-07-13T18:12:22.045Z,10.50
2018-07-13T18:14:51.283Z,13.00
2018-07-13T18:17:20.478Z,11.30
2018-07-13T18:22:17.673Z,12.40
2018-07-13T18:24:46.404Z,12.10
2018-07-13T18:27:15.536Z,12.30
2018-07-13T18:29:44.883Z,11.00
2018-07-13T18:32:14.777Z,11.40
2018-07-13T18:34:43.525Z,10.90
2018-07-13T18:37:12.301Z,10.90
2018-07-13T18:39:41.933Z,11.20
2018-07-13T18:42:10.677Z,12.20
2018-07-13T18:44:40.323Z,12.50
2018-07-13T18:47:09.235Z,12.70
2018-07-13T18:49:38.077Z,13.90
2018-07-13T18:52:07.099Z,14.10
2018-07-13T18:54:36.012Z,13.20
2018-07-13T18:57:04.804Z,12.90
2018-07-13T19:02:02.152Z,14.80
2018-07-13T19:04:30.982Z,14.40
2018-07-13T19:06:59.692Z,14.20
2018-07-13T19:14:26.888Z,14.80
2018-07-13T19:16:55.632Z,18.70
2018-07-13T19:19:25.481Z,21.60
2018-07-13T19:21:54.332Z,20.40
2018-07-13T19:24:23.034Z,19.00
2018-07-13T19:26:51.874Z,23.00
2018-07-13T19:29:20.725Z,24.30
2018-07-13T19:31:49.460Z,24.30
2018-07-13T19:34:18.196Z,24.90
2018-07-13T19:36:46.901Z,29.80
2018-07-13T19:39:15.582Z,30.20
2018-07-13T19:41:44.292Z,29.00
2018-07-13T19:44:12.972Z,27.40
2018-07-13T19:46:41.741Z,28.20
2018-07-13T19:49:10.389Z,30.90
2018-07-13T19:51:39.110Z,30.70
2018-07-13T19:54:07.861Z,29.70
2018-07-13T19:56:37.115Z,32.30
2018-07-13T19:59:05.946Z,33.50
2018-07-13T20:01:34.833Z,33.00
2018-07-13T20:04:03.536Z,31.90
2018-07-13T20:06:32.273Z,32.60
2018-07-13T20:09:00.992Z,31.80
2018-07-13T20:11:29.698Z,35.10
2018-07-13T20:13:58.347Z,34.00
2018-07-13T20:16:27.340Z,34.60
2018-07-13T20:18:56.230Z,35.50
2018-07-13T20:21:25.012Z,35.00
2018-07-13T20:23:53.732Z,35.00
2018-07-13T20:26:22.503Z,31.90
2018-07-13T20:28:51.409Z,28.00
2018-07-13T20:31:20.184Z,30.90
2018-07-13T20:33:49.076Z,32.30
2018-07-13T20:36:17.900Z,32.50
2018-07-13T20:38:47.197Z,34.40
2018-07-13T20:41:16.273Z,30.00
2018-07-13T20:43:45.068Z,21.90
2018-07-13T20:46:13.953Z,21.70
2018-07-13T20:48:42.665Z,22.20
2018-07-13T20:51:11.439Z,24.50
2018-07-13T20:53:40.165Z,24.90
2018-07-13T20:56:08.952Z,26.20
2018-07-13T20:58:37.625Z,27.00
2018-07-13T21:01:07.403Z,26.40
2018-07-13T21:03:36.475Z,26.70
2018-07-13T21:06:05.301Z,27.50
2018-07-13T21:08:34.164Z,29.20
2018-07-13T21:11:03.249Z,27.30
2018-07-13T21:13:32.178Z,28.50
2018-07-13T21:16:00.902Z,31.20
2018-07-13T21:18:29.600Z,31.60
2018-07-13T21:20:59.254Z,35.10
2018-07-13T21:23:27.966Z,36.50
2018-07-13T21:25:56.696Z,37.10
2018-07-13T21:28:25.540Z,39.60
2018-07-13T21:30:54.280Z,40.80
2018-07-13T21:33:22.928Z,38.90
2018-07-13T21:35:51.777Z,41.10
2018-07-13T21:38:20.669Z,42.80
2018-07-13T21:40:49.588Z,41.90
2018-07-13T21:43:18.267Z,42.00
2018-07-13T21:45:47.061Z,42.90
2018-07-13T21:48:15.805Z,44.30
2018-07-13T21:50:44.794Z,47.80
2018-07-13T21:53:14.076Z,46.30
2018-07-13T21:55:42.830Z,48.50
2018-07-13T21:58:11.766Z,45.90
2018-07-13T22:00:40.574Z,48.10
2018-07-13T22:03:09.258Z,46.50
2018-07-13T22:05:38.564Z,44.70
2018-07-13T22:08:07.401Z,45.80
2018-07-13T22:10:36.363Z,49.80
2018-07-13T22:13:05.100Z,50.40
2018-07-13T22:15:33.887Z,52.00
2018-07-13T22:18:02.952Z,54.50
2018-07-13T22:20:32.256Z,56.20
2018-07-13T22:23:00.965Z,57.80
2018-07-13T22:27:57.974Z,58.30
2018-07-13T22:30:26.828Z,60.10
2018-07-13T22:32:55.669Z,60.10
2018-07-13T22:35:25.567Z,61.90
2018-07-13T22:37:54.919Z,62.50
2018-07-13T22:40:23.756Z,63.20
2018-07-13T22:42:52.486Z,63.20
2018-07-13T22:45:21.249Z,63.50
2018-07-13T22:47:49.991Z,64.60
2018-07-13T22:50:18.724Z,66.20
2018-07-13T22:52:47.440Z,67.80
2018-07-13T22:55:16.190Z,66.50
2018-07-13T22:57:44.919Z,66.60
2018-07-13T23:00:13.664Z,67.70
2018-07-13T23:02:42.366Z,69.80
2018-07-13T23:05:11.119Z,70.30
2018-07-13T23:07:39.876Z,70.60
2018-07-13T23:10:08.597Z,70.10
2018-07-13T23:12:37.301Z,71.80
2018-07-13T23:15:06.117Z,71.30
2018-07-13T23:17:34.886Z,72.70
2018-07-13T23:20:03.638Z,74.30
2018-07-13T23:22:32.466Z,73.00
2018-07-13T23:25:01.209Z,75.00
2018-07-13T23:27:29.921Z,75.40
2018-07-13T23:29:58.748Z,76.10
2018-07-13T23:32:27.504Z,76.90
2018-07-13T23:34:56.217Z,77.10
2018-07-13T23:37:25.027Z,77.60
2018-07-13T23:39:53.737Z,78.40
2018-07-13T23:42:22.456Z,77.70
2018-07-13T23:44:51.245Z,78.00
2018-07-13T23:47:20.197Z,78.60
2018-07-13T23:49:49.388Z,77.60
2018-07-13T23:52:18.109Z,78.70
2018-07-13T23:54:46.976Z,78.70
2018-07-13T23:57:15.764Z,77.30
2018-07-13T23:59:44.529Z,77.40
